sensor_id;sensor_type;location;lat;lon;timestamp;P1;durP1;ratioP1;P2;durP2;ratioP2
9799;SDS011;4939;52.00085300;4.17406100;2023-09-19T00:01:19;6.00;;;1.20;;
9799;SDS011;4939;52.00085300;4.17406100;2023-09-19T00:03:45;7.85;;;1.00;;
9799;SDS011;4939;52.00085300;4.17406100;2023-09-19T00:06:12;3.80;;;0.82;;
9799;SDS011;4939;52.00085300;4.17406100;2023-09-19T00:08:41;8.68;;;1.58;;
9799;SDS011;4939;52.00085300;4.17406100;2023-09-19T00:11:09;7.00;;;1.15;;
9799;SDS011;4939;52.00085300;4.17406100;2023-09-19T00:13:36;9.80;;;1.50;;
9799;SDS011;4939;52.00085300;4.17406100;2023-09-19T00:16:07;5.78;;;1.33;;
9799;SDS011;4939;52.00085300;4.17406100;2023-09-19T00:18:37;7.05;;;1.58;;
9799;SDS011;4939;52.00085300;4.17406100;2023-09-19T00:21:03;10.68;;;1.33;;
9799;SDS011;4939;52.00085300;4.17406100;2023-09-19T00:23:32;6.53;;;1.02;;
9799;SDS011;4939;52.00085300;4.17406100;2023-09-19T00:25:59;8.90;;;1.40;;
9799;SDS011;4939;52.00085300;4.17406100;2023-09-19T00:28:25;6.65;;;1.15;;
9799;SDS011;4939;52.00085300;4.17406100;2023-09-19T00:30:51;6.20;;;1.30;;
9799;SDS011;4939;52.00085300;4.17406100;2023-09-19T00:33:17;8.40;;;1.45;;
9799;SDS011;4939;52.00085300;4.17406100;2023-09-19T00:35:50;9.75;;;1.17;;
9799;SDS011;4939;52.00085300;4.17406100;2023-09-19T00:38:17;9.40;;;1.20;;
9799;SDS011;4939;52.00085300;4.17406100;2023-09-19T00:40:49;8.55;;;1.13;;
9799;SDS011;4939;52.00085300;4.17406100;2023-09-19T00:43:18;10.95;;;1.40;;
9799;SDS011;4939;52.00085300;4.17406100;2023-09-19T00:45:46;9.45;;;1.52;;
9799;SDS011;4939;52.00085300;4.17406100;2023-09-19T00:48:14;6.95;;;1.48;;
9799;SDS011;4939;52.00085300;4.17406100;2023-09-19T00:50:44;6.93;;;1.55;;
9799;SDS011;4939;52.00085300;4.17406100;2023-09-19T00:53:13;7.70;;;1.42;;
9799;SDS011;4939;52.00085300;4.17406100;2023-09-19T00:55:43;5.63;;;1.00;;
9799;SDS011;4939;52.00085300;4.17406100;2023-09-19T00:58:10;8.85;;;1.10;;
9799;SDS011;4939;52.00085300;4.17406100;2023-09-19T01:00:36;7.65;;;1.20;;
9799;SDS011;4939;52.00085300;4.17406100;2023-09-19T01:03:03;4.43;;;1.20;;
9799;SDS011;4939;52.00085300;4.17406100;2023-09-19T01:05:31;7.55;;;1.33;;
9799;SDS011;4939;52.00085300;4.17406100;2023-09-19T01:07:58;10.20;;;1.40;;
9799;SDS011;4939;52.00085300;4.17406100;2023-09-19T01:10:24;11.70;;;1.40;;
9799;SDS011;4939;52.00085300;4.17406100;2023-09-19T01:24:31;7.05;;;1.10;;
9799;SDS011;4939;52.00085300;4.17406100;2023-09-19T01:27:24;4.18;;;0.80;;
9799;SDS011;4939;52.00085300;4.17406100;2023-09-19T01:30:20;6.13;;;1.30;;
9799;SDS011;4939;52.00085300;4.17406100;2023-09-19T01:32:50;6.38;;;1.30;;
9799;SDS011;4939;52.00085300;4.17406100;2023-09-19T01:35:17;7.03;;;1.13;;
9799;SDS011;4939;52.00085300;4.17406100;2023-09-19T01:37:43;7.30;;;1.10;;
9799;SDS011;4939;52.00085300;4.17406100;2023-09-19T01:40:14;7.80;;;1.25;;
9799;SDS011;4939;52.00085300;4.17406100;2023-09-19T01:42:45;8.35;;;1.35;;
9799;SDS011;4939;52.00085300;4.17406100;2023-09-19T01:48:00;6.00;;;0.98;;
9799;SDS011;4939;52.00085300;4.17406100;2023-09-19T01:50:46;4.72;;;0.82;;
9799;SDS011;4939;52.00085300;4.17406100;2023-09-19T01:53:27;7.15;;;1.20;;
9799;SDS011;4939;52.00085300;4.17406100;2023-09-19T01:56:00;8.88;;;1.00;;
9799;SDS011;4939;52.00085300;4.17406100;2023-09-19T01:58:45;8.65;;;1.10;;
9799;SDS011;4939;52.00085300;4.17406100;2023-09-19T02:01:15;6.53;;;1.25;;
9799;SDS011;4939;52.00085300;4.17406100;2023-09-19T02:03:44;5.00;;;1.20;;
9799;SDS011;4939;52.00085300;4.17406100;2023-09-19T02:06:16;7.15;;;1.27;;
9799;SDS011;4939;52.00085300;4.17406100;2023-09-19T02:08:43;3.33;;;0.80;;
9799;SDS011;4939;52.00085300;4.17406100;2023-09-19T02:11:12;4.00;;;0.93;;
9799;SDS011;4939;52.00085300;4.17406100;2023-09-19T02:13:38;10.77;;;1.08;;
9799;SDS011;4939;52.00085300;4.17406100;2023-09-19T02:16:05;5.63;;;1.05;;
9799;SDS011;4939;52.00085300;4.17406100;2023-09-19T02:18:32;6.22;;;0.98;;
9799;SDS011;4939;52.00085300;4.17406100;2023-09-19T02:21:00;5.43;;;0.90;;
9799;SDS011;4939;52.00085300;4.17406100;2023-09-19T02:23:26;4.88;;;0.95;;
9799;SDS011;4939;52.00085300;4.17406100;2023-09-19T02:25:52;4.03;;;1.00;;
9799;SDS011;4939;52.00085300;4.17406100;2023-09-19T02:28:19;5.25;;;1.13;;
9799;SDS011;4939;52.00085300;4.17406100;2023-09-19T02:30:48;6.70;;;1.13;;
9799;SDS011;4939;52.00085300;4.17406100;2023-09-19T02:33:15;9.55;;;1.30;;
9799;SDS011;4939;52.00085300;4.17406100;2023-09-19T02:35:43;4.15;;;0.95;;
9799;SDS011;4939;52.00085300;4.17406100;2023-09-19T02:38:09;6.10;;;1.33;;
9799;SDS011;4939;52.00085300;4.17406100;2023-09-19T02:40:37;7.18;;;1.30;;
9799;SDS011;4939;52.00085300;4.17406100;2023-09-19T02:43:03;6.60;;;1.23;;
9799;SDS011;4939;52.00085300;4.17406100;2023-09-19T02:45:30;6.78;;;1.20;;
9799;SDS011;4939;52.00085300;4.17406100;2023-09-19T02:47:56;6.35;;;1.02;;
9799;SDS011;4939;52.00085300;4.17406100;2023-09-19T02:50:23;6.25;;;0.95;;
9799;SDS011;4939;52.00085300;4.17406100;2023-09-19T02:52:48;8.45;;;0.98;;
9799;SDS011;4939;52.00085300;4.17406100;2023-09-19T02:55:15;4.70;;;0.88;;
9799;SDS011;4939;52.00085300;4.17406100;2023-09-19T02:57:46;7.68;;;1.00;;
9799;SDS011;4939;52.00085300;4.17406100;2023-09-19T03:00:13;7.38;;;1.35;;
9799;SDS011;4939;52.00085300;4.17406100;2023-09-19T03:02:39;6.95;;;1.02;;
9799;SDS011;4939;52.00085300;4.17406100;2023-09-19T03:05:07;5.05;;;0.80;;
9799;SDS011;4939;52.00085300;4.17406100;2023-09-19T03:07:33;7.13;;;1.15;;
9799;SDS011;4939;52.00085300;4.17406100;2023-09-19T03:09:59;5.22;;;1.00;;
9799;SDS011;4939;52.00085300;4.17406100;2023-09-19T03:12:28;12.07;;;1.27;;
9799;SDS011;4939;52.00085300;4.17406100;2023-09-19T03:14:54;5.68;;;1.10;;
9799;SDS011;4939;52.00085300;4.17406100;2023-09-19T03:17:20;7.78;;;1.02;;
9799;SDS011;4939;52.00085300;4.17406100;2023-09-19T03:19:46;5.75;;;1.35;;
9799;SDS011;4939;52.00085300;4.17406100;2023-09-19T03:22:12;7.70;;;1.17;;
9799;SDS011;4939;52.00085300;4.17406100;2023-09-19T03:24:39;5.13;;;1.15;;
9799;SDS011;4939;52.00085300;4.17406100;2023-09-19T03:27:05;8.13;;;1.10;;
9799;SDS011;4939;52.00085300;4.17406100;2023-09-19T03:29:30;6.90;;;1.13;;
9799;SDS011;4939;52.00085300;4.17406100;2023-09-19T03:31:56;6.00;;;1.20;;
9799;SDS011;4939;52.00085300;4.17406100;2023-09-19T03:34:21;7.13;;;1.55;;
9799;SDS011;4939;52.00085300;4.17406100;2023-09-19T03:36:47;6.97;;;0.93;;
9799;SDS011;4939;52.00085300;4.17406100;2023-09-19T03:39:13;7.05;;;0.90;;
9799;SDS011;4939;52.00085300;4.17406100;2023-09-19T03:41:40;6.18;;;1.00;;
9799;SDS011;4939;52.00085300;4.17406100;2023-09-19T03:44:06;5.53;;;1.10;;
9799;SDS011;4939;52.00085300;4.17406100;2023-09-19T03:46:32;8.73;;;1.30;;
9799;SDS011;4939;52.00085300;4.17406100;2023-09-19T03:49:00;7.50;;;1.20;;
9799;SDS011;4939;52.00085300;4.17406100;2023-09-19T03:51:26;5.13;;;1.23;;
9799;SDS011;4939;52.00085300;4.17406100;2023-09-19T03:53:51;6.72;;;1.30;;
9799;SDS011;4939;52.00085300;4.17406100;2023-09-19T03:56:17;4.95;;;0.90;;
9799;SDS011;4939;52.00085300;4.17406100;2023-09-19T03:58:42;6.85;;;0.90;;
9799;SDS011;4939;52.00085300;4.17406100;2023-09-19T04:01:08;6.05;;;0.90;;
9799;SDS011;4939;52.00085300;4.17406100;2023-09-19T04:03:34;5.35;;;0.77;;
9799;SDS011;4939;52.00085300;4.17406100;2023-09-19T04:06:11;5.40;;;1.05;;
9799;SDS011;4939;52.00085300;4.17406100;2023-09-19T04:08:38;7.32;;;1.00;;
9799;SDS011;4939;52.00085300;4.17406100;2023-09-19T04:11:03;4.85;;;0.80;;
9799;SDS011;4939;52.00085300;4.17406100;2023-09-19T04:13:29;6.25;;;0.93;;
9799;SDS011;4939;52.00085300;4.17406100;2023-09-19T04:15:55;7.32;;;1.35;;
9799;SDS011;4939;52.00085300;4.17406100;2023-09-19T04:18:21;6.22;;;0.85;;
9799;SDS011;4939;52.00085300;4.17406100;2023-09-19T04:20:52;5.35;;;1.13;;
9799;SDS011;4939;52.00085300;4.17406100;2023-09-19T04:23:17;5.28;;;0.90;;
9799;SDS011;4939;52.00085300;4.17406100;2023-09-19T04:25:45;4.53;;;0.77;;
9799;SDS011;4939;52.00085300;4.17406100;2023-09-19T04:28:11;4.55;;;1.00;;
9799;SDS011;4939;52.00085300;4.17406100;2023-09-19T04:30:38;5.93;;;1.17;;
9799;SDS011;4939;52.00085300;4.17406100;2023-09-19T04:33:06;7.30;;;0.88;;
9799;SDS011;4939;52.00085300;4.17406100;2023-09-19T04:35:33;6.80;;;1.20;;
9799;SDS011;4939;52.00085300;4.17406100;2023-09-19T04:38:00;6.10;;;0.93;;
9799;SDS011;4939;52.00085300;4.17406100;2023-09-19T04:40:28;8.05;;;1.20;;
9799;SDS011;4939;52.00085300;4.17406100;2023-09-19T04:42:54;5.90;;;1.15;;
9799;SDS011;4939;52.00085300;4.17406100;2023-09-19T04:45:25;7.15;;;1.10;;
9799;SDS011;4939;52.00085300;4.17406100;2023-09-19T04:47:53;4.45;;;0.90;;
9799;SDS011;4939;52.00085300;4.17406100;2023-09-19T04:50:19;3.85;;;1.08;;
9799;SDS011;4939;52.00085300;4.17406100;2023-09-19T04:52:46;6.68;;;0.90;;
9799;SDS011;4939;52.00085300;4.17406100;2023-09-19T04:55:15;7.20;;;0.98;;
9799;SDS011;4939;52.00085300;4.17406100;2023-09-19T04:57:43;9.73;;;1.30;;
9799;SDS011;4939;52.00085300;4.17406100;2023-09-19T05:00:19;6.85;;;1.27;;
9799;SDS011;4939;52.00085300;4.17406100;2023-09-19T05:02:52;8.05;;;1.20;;
9799;SDS011;4939;52.00085300;4.17406100;2023-09-19T05:05:21;6.60;;;0.93;;
9799;SDS011;4939;52.00085300;4.17406100;2023-09-19T05:07:48;8.27;;;1.20;;
9799;SDS011;4939;52.00085300;4.17406100;2023-09-19T05:10:16;4.55;;;1.20;;
9799;SDS011;4939;52.00085300;4.17406100;2023-09-19T05:12:43;6.25;;;0.90;;
9799;SDS011;4939;52.00085300;4.17406100;2023-09-19T05:15:12;7.07;;;1.08;;
9799;SDS011;4939;52.00085300;4.17406100;2023-09-19T05:17:39;9.63;;;1.00;;
9799;SDS011;4939;52.00085300;4.17406100;2023-09-19T05:20:05;6.13;;;1.10;;
9799;SDS011;4939;52.00085300;4.17406100;2023-09-19T05:22:38;6.22;;;1.13;;
9799;SDS011;4939;52.00085300;4.17406100;2023-09-19T05:25:06;10.27;;;1.30;;
9799;SDS011;4939;52.00085300;4.17406100;2023-09-19T05:27:32;6.05;;;1.35;;
9799;SDS011;4939;52.00085300;4.17406100;2023-09-19T05:29:58;5.72;;;1.35;;
9799;SDS011;4939;52.00085300;4.17406100;2023-09-19T05:32:25;8.25;;;1.23;;
9799;SDS011;4939;52.00085300;4.17406100;2023-09-19T05:34:50;9.77;;;1.40;;
9799;SDS011;4939;52.00085300;4.17406100;2023-09-19T05:37:21;7.07;;;1.60;;
9799;SDS011;4939;52.00085300;4.17406100;2023-09-19T05:39:48;9.85;;;1.48;;
9799;SDS011;4939;52.00085300;4.17406100;2023-09-19T05:42:14;9.90;;;1.48;;
9799;SDS011;4939;52.00085300;4.17406100;2023-09-19T05:44:40;7.00;;;1.08;;
9799;SDS011;4939;52.00085300;4.17406100;2023-09-19T05:47:06;9.00;;;1.27;;
9799;SDS011;4939;52.00085300;4.17406100;2023-09-19T05:49:34;10.25;;;1.27;;
9799;SDS011;4939;52.00085300;4.17406100;2023-09-19T05:52:03;8.48;;;1.30;;
9799;SDS011;4939;52.00085300;4.17406100;2023-09-19T05:54:30;7.25;;;1.20;;
9799;SDS011;4939;52.00085300;4.17406100;2023-09-19T05:56:56;4.65;;;0.85;;
9799;SDS011;4939;52.00085300;4.17406100;2023-09-19T05:59:23;12.45;;;1.48;;
9799;SDS011;4939;52.00085300;4.17406100;2023-09-19T06:01:49;8.18;;;1.20;;
9799;SDS011;4939;52.00085300;4.17406100;2023-09-19T06:04:14;9.65;;;1.65;;
9799;SDS011;4939;52.00085300;4.17406100;2023-09-19T06:06:40;9.27;;;1.40;;
9799;SDS011;4939;52.00085300;4.17406100;2023-09-19T06:09:06;9.00;;;1.65;;
9799;SDS011;4939;52.00085300;4.17406100;2023-09-19T06:11:35;11.10;;;1.52;;
9799;SDS011;4939;52.00085300;4.17406100;2023-09-19T06:14:01;6.57;;;0.85;;
9799;SDS011;4939;52.00085300;4.17406100;2023-09-19T06:16:30;12.05;;;1.40;;
9799;SDS011;4939;52.00085300;4.17406100;2023-09-19T06:18:58;6.28;;;1.10;;
9799;SDS011;4939;52.00085300;4.17406100;2023-09-19T06:21:27;10.80;;;1.35;;
9799;SDS011;4939;52.00085300;4.17406100;2023-09-19T06:23:53;8.65;;;1.27;;
9799;SDS011;4939;52.00085300;4.17406100;2023-09-19T06:26:19;8.43;;;1.20;;
9799;SDS011;4939;52.00085300;4.17406100;2023-09-19T06:28:45;11.75;;;1.10;;
9799;SDS011;4939;52.00085300;4.17406100;2023-09-19T06:31:10;5.70;;;1.27;;
9799;SDS011;4939;52.00085300;4.17406100;2023-09-19T06:33:37;9.00;;;1.45;;
9799;SDS011;4939;52.00085300;4.17406100;2023-09-19T06:36:04;6.43;;;1.00;;
9799;SDS011;4939;52.00085300;4.17406100;2023-09-19T06:38:32;11.05;;;1.52;;
9799;SDS011;4939;52.00085300;4.17406100;2023-09-19T06:41:01;8.68;;;1.40;;
9799;SDS011;4939;52.00085300;4.17406100;2023-09-19T06:43:32;13.55;;;1.55;;
9799;SDS011;4939;52.00085300;4.17406100;2023-09-19T06:45:59;8.52;;;1.10;;
9799;SDS011;4939;52.00085300;4.17406100;2023-09-19T06:48:29;10.65;;;1.20;;
9799;SDS011;4939;52.00085300;4.17406100;2023-09-19T06:50:55;7.07;;;1.67;;
9799;SDS011;4939;52.00085300;4.17406100;2023-09-19T06:53:23;8.82;;;1.30;;
9799;SDS011;4939;52.00085300;4.17406100;2023-09-19T06:55:52;9.30;;;1.77;;
9799;SDS011;4939;52.00085300;4.17406100;2023-09-19T06:58:19;9.23;;;1.20;;
9799;SDS011;4939;52.00085300;4.17406100;2023-09-19T07:00:45;8.15;;;1.35;;
9799;SDS011;4939;52.00085300;4.17406100;2023-09-19T07:03:12;7.47;;;1.02;;
9799;SDS011;4939;52.00085300;4.17406100;2023-09-19T07:05:41;8.55;;;1.42;;
9799;SDS011;4939;52.00085300;4.17406100;2023-09-19T07:08:08;5.72;;;1.50;;
9799;SDS011;4939;52.00085300;4.17406100;2023-09-19T07:10:35;6.60;;;1.02;;
9799;SDS011;4939;52.00085300;4.17406100;2023-09-19T07:13:05;12.63;;;1.48;;
9799;SDS011;4939;52.00085300;4.17406100;2023-09-19T07:18:11;10.25;;;1.33;;
9799;SDS011;4939;52.00085300;4.17406100;2023-09-19T07:23:14;10.88;;;1.50;;
9799;SDS011;4939;52.00085300;4.17406100;2023-09-19T07:25:43;18.65;;;1.98;;
9799;SDS011;4939;52.00085300;4.17406100;2023-09-19T07:28:09;11.20;;;1.80;;
9799;SDS011;4939;52.00085300;4.17406100;2023-09-19T07:30:38;12.35;;;1.70;;
9799;SDS011;4939;52.00085300;4.17406100;2023-09-19T07:33:04;8.80;;;1.60;;
9799;SDS011;4939;52.00085300;4.17406100;2023-09-19T07:35:30;10.65;;;1.67;;
9799;SDS011;4939;52.00085300;4.17406100;2023-09-19T07:37:56;10.20;;;1.67;;
9799;SDS011;4939;52.00085300;4.17406100;2023-09-19T07:40:23;8.55;;;1.75;;
9799;SDS011;4939;52.00085300;4.17406100;2023-09-19T07:42:51;7.25;;;1.60;;
9799;SDS011;4939;52.00085300;4.17406100;2023-09-19T07:45:17;10.00;;;2.00;;
9799;SDS011;4939;52.00085300;4.17406100;2023-09-19T07:47:44;8.45;;;1.85;;
9799;SDS011;4939;52.00085300;4.17406100;2023-09-19T07:50:10;9.25;;;1.80;;
9799;SDS011;4939;52.00085300;4.17406100;2023-09-19T07:52:36;14.65;;;1.77;;
9799;SDS011;4939;52.00085300;4.17406100;2023-09-19T07:55:04;9.30;;;1.75;;
9799;SDS011;4939;52.00085300;4.17406100;2023-09-19T07:57:33;8.57;;;1.35;;
9799;SDS011;4939;52.00085300;4.17406100;2023-09-19T08:00:00;6.95;;;1.25;;
9799;SDS011;4939;52.00085300;4.17406100;2023-09-19T08:02:25;10.63;;;1.67;;
9799;SDS011;4939;52.00085300;4.17406100;2023-09-19T08:04:53;11.57;;;1.80;;
9799;SDS011;4939;52.00085300;4.17406100;2023-09-19T08:07:18;7.82;;;1.52;;
9799;SDS011;4939;52.00085300;4.17406100;2023-09-19T08:09:44;12.27;;;1.73;;
9799;SDS011;4939;52.00085300;4.17406100;2023-09-19T08:12:13;12.23;;;1.70;;
9799;SDS011;4939;52.00085300;4.17406100;2023-09-19T08:14:40;10.57;;;1.60;;
9799;SDS011;4939;52.00085300;4.17406100;2023-09-19T08:17:08;5.65;;;1.20;;
9799;SDS011;4939;52.00085300;4.17406100;2023-09-19T08:19:34;9.00;;;1.65;;
9799;SDS011;4939;52.00085300;4.17406100;2023-09-19T08:22:05;9.88;;;1.73;;
9799;SDS011;4939;52.00085300;4.17406100;2023-09-19T08:24:31;10.68;;;1.42;;
9799;SDS011;4939;52.00085300;4.17406100;2023-09-19T08:26:58;11.32;;;1.30;;
9799;SDS011;4939;52.00085300;4.17406100;2023-09-19T08:29:24;10.73;;;1.88;;
9799;SDS011;4939;52.00085300;4.17406100;2023-09-19T08:31:53;7.22;;;1.85;;
9799;SDS011;4939;52.00085300;4.17406100;2023-09-19T08:34:20;7.90;;;1.63;;
9799;SDS011;4939;52.00085300;4.17406100;2023-09-19T08:36:46;13.00;;;2.03;;
9799;SDS011;4939;52.00085300;4.17406100;2023-09-19T08:39:13;12.80;;;1.60;;
9799;SDS011;4939;52.00085300;4.17406100;2023-09-19T08:41:39;9.90;;;1.60;;
9799;SDS011;4939;52.00085300;4.17406100;2023-09-19T08:44:05;13.98;;;1.80;;
9799;SDS011;4939;52.00085300;4.17406100;2023-09-19T08:46:31;8.88;;;1.50;;
9799;SDS011;4939;52.00085300;4.17406100;2023-09-19T08:49:04;5.03;;;1.10;;
9799;SDS011;4939;52.00085300;4.17406100;2023-09-19T08:51:42;11.83;;;1.70;;
9799;SDS011;4939;52.00085300;4.17406100;2023-09-19T08:54:12;6.97;;;1.90;;
9799;SDS011;4939;52.00085300;4.17406100;2023-09-19T08:56:51;11.98;;;2.03;;
9799;SDS011;4939;52.00085300;4.17406100;2023-09-19T08:59:21;8.02;;;1.50;;
9799;SDS011;4939;52.00085300;4.17406100;2023-09-19T09:01:50;9.52;;;1.40;;
9799;SDS011;4939;52.00085300;4.17406100;2023-09-19T09:04:18;13.85;;;1.67;;
9799;SDS011;4939;52.00085300;4.17406100;2023-09-19T09:06:45;15.50;;;1.90;;
9799;SDS011;4939;52.00085300;4.17406100;2023-09-19T09:09:18;10.05;;;1.33;;
9799;SDS011;4939;52.00085300;4.17406100;2023-09-19T09:11:44;10.85;;;1.70;;
9799;SDS011;4939;52.00085300;4.17406100;2023-09-19T09:14:10;10.27;;;1.88;;
9799;SDS011;4939;52.00085300;4.17406100;2023-09-19T09:16:36;10.45;;;1.73;;
9799;SDS011;4939;52.00085300;4.17406100;2023-09-19T09:19:02;11.32;;;1.70;;
9799;SDS011;4939;52.00085300;4.17406100;2023-09-19T09:21:28;10.50;;;1.33;;
9799;SDS011;4939;52.00085300;4.17406100;2023-09-19T09:23:54;9.13;;;1.52;;
9799;SDS011;4939;52.00085300;4.17406100;2023-09-19T09:29:04;8.70;;;1.50;;
9799;SDS011;4939;52.00085300;4.17406100;2023-09-19T09:31:29;9.00;;;1.65;;
9799;SDS011;4939;52.00085300;4.17406100;2023-09-19T09:33:55;12.23;;;1.30;;
9799;SDS011;4939;52.00085300;4.17406100;2023-09-19T09:36:35;6.63;;;1.20;;
9799;SDS011;4939;52.00085300;4.17406100;2023-09-19T09:39:03;7.53;;;1.30;;
9799;SDS011;4939;52.00085300;4.17406100;2023-09-19T09:41:40;7.68;;;1.40;;
9799;SDS011;4939;52.00085300;4.17406100;2023-09-19T09:44:15;7.05;;;1.08;;
9799;SDS011;4939;52.00085300;4.17406100;2023-09-19T09:46:43;12.20;;;1.40;;
9799;SDS011;4939;52.00085300;4.17406100;2023-09-19T09:49:25;8.35;;;1.30;;
9799;SDS011;4939;52.00085300;4.17406100;2023-09-19T09:52:03;10.85;;;1.30;;
9799;SDS011;4939;52.00085300;4.17406100;2023-09-19T09:55:02;9.35;;;1.33;;
9799;SDS011;4939;52.00085300;4.17406100;2023-09-19T09:57:32;10.45;;;1.73;;
9799;SDS011;4939;52.00085300;4.17406100;2023-09-19T09:59:59;5.68;;;1.30;;
9799;SDS011;4939;52.00085300;4.17406100;2023-09-19T10:05:17;8.25;;;1.30;;
9799;SDS011;4939;52.00085300;4.17406100;2023-09-19T10:07:45;10.27;;;1.70;;
9799;SDS011;4939;52.00085300;4.17406100;2023-09-19T10:10:37;8.57;;;1.40;;
9799;SDS011;4939;52.00085300;4.17406100;2023-09-19T10:13:08;9.07;;;1.35;;
9799;SDS011;4939;52.00085300;4.17406100;2023-09-19T10:15:49;10.07;;;1.52;;
9799;SDS011;4939;52.00085300;4.17406100;2023-09-19T10:18:19;15.57;;;2.20;;
9799;SDS011;4939;52.00085300;4.17406100;2023-09-19T10:20:53;4.47;;;1.35;;
9799;SDS011;4939;52.00085300;4.17406100;2023-09-19T10:23:20;7.90;;;1.42;;
9799;SDS011;4939;52.00085300;4.17406100;2023-09-19T10:25:51;12.30;;;1.80;;
9799;SDS011;4939;52.00085300;4.17406100;2023-09-19T10:28:17;10.07;;;1.40;;
9799;SDS011;4939;52.00085300;4.17406100;2023-09-19T10:30:50;7.40;;;1.20;;
9799;SDS011;4939;52.00085300;4.17406100;2023-09-19T10:33:18;9.63;;;1.27;;
9799;SDS011;4939;52.00085300;4.17406100;2023-09-19T10:35:47;6.03;;;1.25;;
9799;SDS011;4939;52.00085300;4.17406100;2023-09-19T10:38:14;8.93;;;1.20;;
9799;SDS011;4939;52.00085300;4.17406100;2023-09-19T10:40:44;7.47;;;1.30;;
9799;SDS011;4939;52.00085300;4.17406100;2023-09-19T10:43:15;4.07;;;1.00;;
9799;SDS011;4939;52.00085300;4.17406100;2023-09-19T10:45:45;5.40;;;1.15;;
9799;SDS011;4939;52.00085300;4.17406100;2023-09-19T10:48:18;7.63;;;1.20;;
9799;SDS011;4939;52.00085300;4.17406100;2023-09-19T10:50:52;4.07;;;1.10;;
9799;SDS011;4939;52.00085300;4.17406100;2023-09-19T10:53:31;7.65;;;1.30;;
9799;SDS011;4939;52.00085300;4.17406100;2023-09-19T10:56:37;4.18;;;1.20;;
9799;SDS011;4939;52.00085300;4.17406100;2023-09-19T10:59:07;4.70;;;1.08;;
9799;SDS011;4939;52.00085300;4.17406100;2023-09-19T11:01:50;7.85;;;1.15;;
9799;SDS011;4939;52.00085300;4.17406100;2023-09-19T11:09:51;7.20;;;1.17;;
9799;SDS011;4939;52.00085300;4.17406100;2023-09-19T11:15:11;6.22;;;1.08;;
9799;SDS011;4939;52.00085300;4.17406100;2023-09-19T11:24:32;5.90;;;1.27;;
9799;SDS011;4939;52.00085300;4.17406100;2023-09-19T11:27:12;4.13;;;1.02;;
9799;SDS011;4939;52.00085300;4.17406100;2023-09-19T11:29:39;6.63;;;1.60;;
9799;SDS011;4939;52.00085300;4.17406100;2023-09-19T11:32:05;5.78;;;1.30;;
9799;SDS011;4939;52.00085300;4.17406100;2023-09-19T11:34:41;5.95;;;1.40;;
9799;SDS011;4939;52.00085300;4.17406100;2023-09-19T11:39:39;4.85;;;1.27;;
9799;SDS011;4939;52.00085300;4.17406100;2023-09-19T11:42:46;5.75;;;1.55;;
9799;SDS011;4939;52.00085300;4.17406100;2023-09-19T11:48:11;6.28;;;0.95;;
9799;SDS011;4939;52.00085300;4.17406100;2023-09-19T11:50:44;5.60;;;1.20;;
9799;SDS011;4939;52.00085300;4.17406100;2023-09-19T11:53:12;7.30;;;1.35;;
9799;SDS011;4939;52.00085300;4.17406100;2023-09-19T11:55:39;7.80;;;1.38;;
9799;SDS011;4939;52.00085300;4.17406100;2023-09-19T11:58:08;6.40;;;1.50;;
9799;SDS011;4939;52.00085300;4.17406100;2023-09-19T12:00:37;5.68;;;1.63;;
9799;SDS011;4939;52.00085300;4.17406100;2023-09-19T12:03:08;6.60;;;2.42;;
9799;SDS011;4939;52.00085300;4.17406100;2023-09-19T12:05:36;5.80;;;1.50;;
9799;SDS011;4939;52.00085300;4.17406100;2023-09-19T12:08:02;11.45;;;2.22;;
9799;SDS011;4939;52.00085300;4.17406100;2023-09-19T12:10:43;10.38;;;1.98;;
9799;SDS011;4939;52.00085300;4.17406100;2023-09-19T12:15:45;5.88;;;1.20;;
9799;SDS011;4939;52.00085300;4.17406100;2023-09-19T12:18:31;6.53;;;1.77;;
9799;SDS011;4939;52.00085300;4.17406100;2023-09-19T12:20:58;9.15;;;1.85;;
9799;SDS011;4939;52.00085300;4.17406100;2023-09-19T12:23:25;10.00;;;2.30;;
9799;SDS011;4939;52.00085300;4.17406100;2023-09-19T12:25:54;8.80;;;2.03;;
9799;SDS011;4939;52.00085300;4.17406100;2023-09-19T12:28:21;10.77;;;2.20;;
9799;SDS011;4939;52.00085300;4.17406100;2023-09-19T12:30:51;9.40;;;2.83;;
9799;SDS011;4939;52.00085300;4.17406100;2023-09-19T12:33:20;6.53;;;1.90;;
9799;SDS011;4939;52.00085300;4.17406100;2023-09-19T12:35:50;6.18;;;1.38;;
9799;SDS011;4939;52.00085300;4.17406100;2023-09-19T12:38:24;8.75;;;1.95;;
9799;SDS011;4939;52.00085300;4.17406100;2023-09-19T12:40:55;7.38;;;1.40;;
9799;SDS011;4939;52.00085300;4.17406100;2023-09-19T12:43:23;7.82;;;1.48;;
9799;SDS011;4939;52.00085300;4.17406100;2023-09-19T12:45:50;4.75;;;1.10;;
9799;SDS011;4939;52.00085300;4.17406100;2023-09-19T12:50:59;12.00;;;1.65;;
9799;SDS011;4939;52.00085300;4.17406100;2023-09-19T12:53:26;6.35;;;1.35;;
9799;SDS011;4939;52.00085300;4.17406100;2023-09-19T12:56:01;7.35;;;1.58;;
9799;SDS011;4939;52.00085300;4.17406100;2023-09-19T12:58:27;8.82;;;1.65;;
9799;SDS011;4939;52.00085300;4.17406100;2023-09-19T13:00:56;9.95;;;1.50;;
9799;SDS011;4939;52.00085300;4.17406100;2023-09-19T13:05:56;8.38;;;1.50;;
9799;SDS011;4939;52.00085300;4.17406100;2023-09-19T13:08:25;5.13;;;1.33;;
9799;SDS011;4939;52.00085300;4.17406100;2023-09-19T13:11:19;8.57;;;1.73;;
9799;SDS011;4939;52.00085300;4.17406100;2023-09-19T13:14:13;4.55;;;1.45;;
9799;SDS011;4939;52.00085300;4.17406100;2023-09-19T13:16:58;9.80;;;1.88;;
9799;SDS011;4939;52.00085300;4.17406100;2023-09-19T13:19:35;12.05;;;1.80;;
9799;SDS011;4939;52.00085300;4.17406100;2023-09-19T13:25:17;13.25;;;2.35;;
9799;SDS011;4939;52.00085300;4.17406100;2023-09-19T13:27:44;8.90;;;2.00;;
9799;SDS011;4939;52.00085300;4.17406100;2023-09-19T13:30:16;14.98;;;2.42;;
9799;SDS011;4939;52.00085300;4.17406100;2023-09-19T13:32:43;12.40;;;2.22;;
9799;SDS011;4939;52.00085300;4.17406100;2023-09-19T13:35:12;12.38;;;2.13;;
9799;SDS011;4939;52.00085300;4.17406100;2023-09-19T13:37:41;16.95;;;2.58;;
9799;SDS011;4939;52.00085300;4.17406100;2023-09-19T13:40:08;13.15;;;2.40;;
9799;SDS011;4939;52.00085300;4.17406100;2023-09-19T13:42:35;12.77;;;2.20;;
9799;SDS011;4939;52.00085300;4.17406100;2023-09-19T13:45:02;9.90;;;2.67;;
9799;SDS011;4939;52.00085300;4.17406100;2023-09-19T13:47:29;15.57;;;2.50;;
9799;SDS011;4939;52.00085300;4.17406100;2023-09-19T13:49:55;15.82;;;2.97;;
9799;SDS011;4939;52.00085300;4.17406100;2023-09-19T13:52:20;12.52;;;2.15;;
9799;SDS011;4939;52.00085300;4.17406100;2023-09-19T13:54:52;11.32;;;2.10;;
9799;SDS011;4939;52.00085300;4.17406100;2023-09-19T13:59:51;12.10;;;2.17;;
9799;SDS011;4939;52.00085300;4.17406100;2023-09-19T14:02:19;12.43;;;2.42;;
9799;SDS011;4939;52.00085300;4.17406100;2023-09-19T14:04:44;11.15;;;2.58;;
9799;SDS011;4939;52.00085300;4.17406100;2023-09-19T14:07:10;15.55;;;2.10;;
9799;SDS011;4939;52.00085300;4.17406100;2023-09-19T14:09:37;11.40;;;2.00;;
9799;SDS011;4939;52.00085300;4.17406100;2023-09-19T14:12:03;8.90;;;1.58;;
9799;SDS011;4939;52.00085300;4.17406100;2023-09-19T14:14:28;12.60;;;2.25;;
9799;SDS011;4939;52.00085300;4.17406100;2023-09-19T14:16:54;12.52;;;2.20;;
9799;SDS011;4939;52.00085300;4.17406100;2023-09-19T14:19:20;10.82;;;1.80;;